createdAt,value
2023-04-02T00:01:09.846Z,24.90
2023-04-02T00:04:01.333Z,24.40
2023-04-02T00:07:10.357Z,22.10
2023-04-02T00:10:00.918Z,26.00
2023-04-02T00:13:06.897Z,27.60
2023-04-02T00:15:57.621Z,25.60
2023-04-02T00:18:53.116Z,25.20
2023-04-02T00:21:43.136Z,27.30
2023-04-02T00:24:52.705Z,22.80
2023-04-02T00:27:54.111Z,25.20
2023-04-02T00:30:51.672Z,22.20
2023-04-02T00:34:09.248Z,20.90
2023-04-02T00:37:28.707Z,23.00
2023-04-02T00:40:55.989Z,22.40
2023-04-02T00:44:26.324Z,22.30
2023-04-02T00:47:35.496Z,22.00
2023-04-02T00:50:30.938Z,25.40
2023-04-02T00:53:32.083Z,21.70
2023-04-02T00:56:42.512Z,22.30
2023-04-02T00:59:57.380Z,19.80
2023-04-02T01:03:44.199Z,20.70
2023-04-02T01:08:11.271Z,21.60
2023-04-02T01:12:30.857Z,20.70
2023-04-02T01:16:34.680Z,21.30
2023-04-02T01:20:36.883Z,19.10
2023-04-02T01:24:36.703Z,20.40
2023-04-02T01:29:32.694Z,20.70
2023-04-02T01:33:56.049Z,21.40
2023-04-02T01:38:21.579Z,21.40
2023-04-02T01:42:21.428Z,18.80
2023-04-02T01:46:20.542Z,16.60
2023-04-02T01:50:20.434Z,18.40
2023-04-02T01:55:12.366Z,18.80
2023-04-02T01:59:11.204Z,17.90
2023-04-02T02:04:29.472Z,17.90
2023-04-02T02:08:29.250Z,16.40
2023-04-02T02:12:29.409Z,16.00
2023-04-02T02:16:29.346Z,16.60
2023-04-02T02:21:03.602Z,18.20
2023-04-02T02:25:03.462Z,17.10
2023-04-02T02:29:03.654Z,17.10
2023-04-02T02:33:00.488Z,23.90
2023-04-02T02:37:09.771Z,25.00
2023-04-02T02:41:08.438Z,24.70
2023-04-02T02:45:08.618Z,24.20
2023-04-02T02:52:09.404Z,22.00
2023-04-02T02:56:08.152Z,22.50
2023-04-02T03:00:03.357Z,24.90
2023-04-02T03:03:55.499Z,20.80
2023-04-02T03:08:35.113Z,20.50
2023-04-02T03:12:33.632Z,19.30
2023-04-02T03:16:31.746Z,20.50
2023-04-02T03:20:42.629Z,19.60
2023-04-02T03:25:12.162Z,18.60
2023-04-02T03:29:12.105Z,16.00
2023-04-02T03:33:12.184Z,22.40
2023-04-02T03:37:18.080Z,24.30
2023-04-02T03:41:52.743Z,22.60
2023-04-02T03:45:52.570Z,23.80
2023-04-02T03:49:55.657Z,23.00
2023-04-02T03:58:33.258Z,22.10
2023-04-02T04:02:56.777Z,26.30
2023-04-02T04:07:20.151Z,22.30
2023-04-02T04:11:42.956Z,24.40
2023-04-02T04:16:24.769Z,24.30
2023-04-02T04:20:54.204Z,27.20
2023-04-02T04:25:19.432Z,35.00
2023-04-02T04:29:43.496Z,32.90
2023-04-02T04:34:10.058Z,22.50
2023-04-02T04:38:34.061Z,16.30
2023-04-02T04:42:57.554Z,13.10
2023-04-02T04:47:35.759Z,15.50
2023-04-02T04:51:35.866Z,9.60
2023-04-02T04:55:53.728Z,10.60
2023-04-02T04:59:53.896Z,11.50
2023-04-02T05:04:17.839Z,10.00
2023-04-02T05:08:24.218Z,10.30
2023-04-02T05:12:33.839Z,11.50
2023-04-02T05:16:35.150Z,16.00
2023-04-02T05:20:38.804Z,14.30
2023-04-02T05:24:38.963Z,11.80
2023-04-02T05:28:41.778Z,8.90
2023-04-02T05:34:14.992Z,8.30
2023-04-02T05:38:15.017Z,7.20
2023-04-02T05:42:11.857Z,5.30
2023-04-02T05:46:11.850Z,6.60
2023-04-02T05:50:10.859Z,5.00
2023-04-02T05:54:04.969Z,8.10
2023-04-02T05:58:31.833Z,4.30
2023-04-02T06:05:05.663Z,3.60
2023-04-02T06:09:36.141Z,3.50
2023-04-02T06:18:34.908Z,3.10
2023-04-02T06:23:04.186Z,2.30
2023-04-02T06:27:27.645Z,1.20
2023-04-02T06:31:56.119Z,2.60
2023-04-02T06:35:56.358Z,1.90
2023-04-02T06:50:12.572Z,1.20
2023-04-02T06:54:36.671Z,2.90
2023-04-02T06:59:00.812Z,1.60
2023-04-02T07:07:57.733Z,2.10
2023-04-02T07:12:26.854Z,2.20
2023-04-02T07:17:08.306Z,1.80
2023-04-02T07:24:39.489Z,1.70
2023-04-02T07:28:38.259Z,1.90
2023-04-02T07:33:15.995Z,2.30
2023-04-02T07:37:45.341Z,3.00
2023-04-02T07:41:49.399Z,2.90
2023-04-02T07:45:49.301Z,1.80
2023-04-02T07:49:49.370Z,4.50
2023-04-02T07:54:27.984Z,4.60
2023-04-02T07:59:10.447Z,4.90
2023-04-02T08:03:33.998Z,13.70
2023-04-02T08:07:57.159Z,7.70
2023-04-02T08:16:12.254Z,3.20
2023-04-02T08:20:17.120Z,6.30
2023-04-02T08:39:17.667Z,1.90
2023-04-02T08:53:48.202Z,5.80
2023-04-02T09:02:14.161Z,3.40
2023-04-02T09:09:05.698Z,7.70
2023-04-02T09:18:19.566Z,3.30
2023-04-02T09:33:46.978Z,3.60
2023-04-02T09:38:36.589Z,5.70
2023-04-02T09:42:51.811Z,2.80
2023-04-02T09:51:04.840Z,3.50
2023-04-02T09:55:15.574Z,5.00
2023-04-02T09:59:25.752Z,7.70
2023-04-02T10:03:32.674Z,14.10
2023-04-02T10:09:22.032Z,10.80
2023-04-02T10:18:05.721Z,9.70
2023-04-02T10:22:09.482Z,6.50
2023-04-02T10:26:01.545Z,5.10
2023-04-02T10:34:34.022Z,7.50
2023-04-02T10:38:36.812Z,5.30
2023-04-02T10:42:54.972Z,5.50
2023-04-02T10:48:35.422Z,4.40
2023-04-02T10:52:58.722Z,6.20
2023-04-02T10:56:58.843Z,2.70
2023-04-02T11:01:01.672Z,4.70
2023-04-02T11:05:02.098Z,3.20
2023-04-02T11:09:49.875Z,6.20
2023-04-02T11:13:48.025Z,4.90
2023-04-02T11:17:45.903Z,5.00
2023-04-02T11:21:58.813Z,4.70
2023-04-02T11:26:14.629Z,10.00
2023-04-02T11:30:45.669Z,4.90
2023-04-02T11:35:23.113Z,8.10
2023-04-02T11:39:31.131Z,5.80
2023-04-02T11:43:35.246Z,9.50
2023-04-02T11:47:50.148Z,12.20
2023-04-02T11:56:29.669Z,11.40
2023-04-02T12:00:32.257Z,23.20
2023-04-02T12:04:14.446Z,23.20
2023-04-02T12:08:57.896Z,8.00
2023-04-02T12:12:59.742Z,8.30
2023-04-02T12:25:25.696Z,5.10
2023-04-02T12:29:25.578Z,6.60
2023-04-02T12:33:29.660Z,6.20
2023-04-02T12:37:58.953Z,8.30
2023-04-02T12:42:00.037Z,7.30
2023-04-02T12:50:14.054Z,10.40
2023-04-02T12:54:15.937Z,10.00
2023-04-02T12:58:15.988Z,7.50
2023-04-02T13:02:26.038Z,16.50
2023-04-02T13:08:13.270Z,7.20
2023-04-02T13:12:19.220Z,10.50
2023-04-02T13:20:59.215Z,8.50
2023-04-02T13:29:59.769Z,11.10
2023-04-02T13:34:29.763Z,8.70
2023-04-02T13:38:56.773Z,13.90
2023-04-02T13:43:00.701Z,8.70
2023-04-02T13:47:08.732Z,10.80
2023-04-02T13:51:13.705Z,8.70
2023-04-02T13:55:38.202Z,10.80
2023-04-02T14:00:07.186Z,9.70
2023-04-02T14:04:51.132Z,8.30
2023-04-02T14:08:51.707Z,7.80
2023-04-02T14:12:57.806Z,5.20
2023-04-02T14:16:54.769Z,8.50
2023-04-02T14:21:20.162Z,6.40
2023-04-02T14:30:30.055Z,6.80
2023-04-02T14:35:01.244Z,7.80
2023-04-02T14:39:01.331Z,6.70
2023-04-02T14:43:01.213Z,6.30
2023-04-02T14:47:01.353Z,7.50
2023-04-02T14:51:35.651Z,8.10
2023-04-02T14:55:36.740Z,5.40
2023-04-02T14:59:43.605Z,5.10
2023-04-02T15:03:47.029Z,6.30
2023-04-02T15:08:22.787Z,5.40
2023-04-02T15:12:25.887Z,8.30
2023-04-02T15:16:24.798Z,11.70
2023-04-02T15:20:24.891Z,8.00
2023-04-02T15:25:10.360Z,5.80
2023-04-02T15:29:27.740Z,6.30
2023-04-02T15:33:15.293Z,6.70
2023-04-02T15:37:15.304Z,6.70
2023-04-02T15:41:18.274Z,6.60
2023-04-02T15:45:28.482Z,9.10
2023-04-02T15:49:34.271Z,6.20
2023-04-02T15:55:31.058Z,10.20
2023-04-02T16:07:59.532Z,6.00
2023-04-02T16:11:58.597Z,11.10
2023-04-02T16:16:51.155Z,6.90
2023-04-02T16:20:50.987Z,7.10
2023-04-02T16:24:49.128Z,6.80
2023-04-02T16:28:53.196Z,8.10
2023-04-02T16:32:53.160Z,8.90
2023-04-02T16:36:52.169Z,6.20
2023-04-02T16:41:07.059Z,5.90
2023-04-02T16:47:33.594Z,7.90
2023-04-02T16:52:04.086Z,7.30
2023-04-02T16:56:52.892Z,7.50
2023-04-02T17:00:54.502Z,9.00
2023-04-02T17:04:52.615Z,7.50
2023-04-02T17:11:53.417Z,25.10
2023-04-02T17:16:28.096Z,13.10
2023-04-02T17:20:27.250Z,9.70
2023-04-02T17:24:44.078Z,9.90
2023-04-02T17:28:44.411Z,9.90
2023-04-02T17:33:20.525Z,5.70
2023-04-02T17:37:34.740Z,5.90
2023-04-02T17:41:38.520Z,5.80
2023-04-02T17:45:17.758Z,5.80
2023-04-02T17:49:48.138Z,7.40
2023-04-02T17:54:15.579Z,6.40
2023-04-02T17:58:49.875Z,12.30
2023-04-02T18:03:17.731Z,13.50
2023-04-02T18:07:54.664Z,7.30
2023-04-02T18:12:34.343Z,6.80
2023-04-02T18:17:06.708Z,7.70
2023-04-02T18:21:36.295Z,7.10
2023-04-02T18:26:08.610Z,8.20
2023-04-02T18:30:38.839Z,10.20
2023-04-02T18:35:03.243Z,8.70
2023-04-02T18:39:28.408Z,5.70
2023-04-02T18:43:47.265Z,6.10
2023-04-02T18:47:56.513Z,4.60
2023-04-02T18:51:48.254Z,6.20
2023-04-02T18:56:12.074Z,5.90
2023-04-02T19:00:11.505Z,26.80
2023-04-02T19:04:11.735Z,32.40
2023-04-02T19:08:11.575Z,21.30
2023-04-02T19:12:47.569Z,14.80
2023-04-02T19:17:10.939Z,16.10
2023-04-02T19:22:07.700Z,15.50
2023-04-02T19:26:07.557Z,12.20
2023-04-02T19:30:10.557Z,11.50
2023-04-02T19:33:46.768Z,11.50
2023-04-02T19:37:50.572Z,9.10
2023-04-02T19:46:05.810Z,8.00
2023-04-02T19:51:57.733Z,8.60
2023-04-02T20:00:20.298Z,15.70
2023-04-02T20:04:20.078Z,8.20
2023-04-02T20:16:40.364Z,33.40
2023-04-02T20:20:39.026Z,8.50
2023-04-02T20:24:42.045Z,5.20
2023-04-02T20:29:09.531Z,6.80
2023-04-02T20:33:33.770Z,6.20
2023-04-02T20:37:56.737Z,8.50
2023-04-02T20:42:19.915Z,8.90
2023-04-02T20:46:44.243Z,7.50
2023-04-02T20:51:08.421Z,8.40
2023-04-02T20:55:54.940Z,5.60
2023-04-02T21:00:21.222Z,5.70
2023-04-02T21:04:44.607Z,4.50
2023-04-02T21:09:08.575Z,5.60
2023-04-02T21:13:32.104Z,7.90
2023-04-02T21:17:55.655Z,4.50
2023-04-02T21:22:21.570Z,4.10
2023-04-02T21:26:49.109Z,5.00
2023-04-02T21:31:12.500Z,4.60
2023-04-02T21:35:39.799Z,4.60
2023-04-02T21:40:18.810Z,6.00
2023-04-02T21:45:08.467Z,6.50
2023-04-02T21:49:49.632Z,4.00
2023-04-02T21:54:27.996Z,4.50
2023-04-02T22:13:22.667Z,5.10
2023-04-02T22:18:18.049Z,7.20
2023-04-02T22:32:48.657Z,4.50
2023-04-02T22:37:11.815Z,5.20
2023-04-02T22:41:50.618Z,4.70
2023-04-02T22:46:22.045Z,7.20
2023-04-02T23:05:10.912Z,5.60
2023-04-02T23:09:59.369Z,5.70
